Terminal Aerodrome Forecast
Issued by NWS Sterling, VA

Home | Current Version | Previous Version | Text Only | Print | Product List | Glossary On
Versions: 1 2 3 4 5 6 7 8 9 10 11 12 13 14 15 16 17 18 19
604
FTUS41 KLWX 262320
TAFMRB
TAF
KMRB 262320Z 2700/2724 VRB03KT P6SM BKN250
     FM270900 VRB03KT P6SM -RA OVC025
     FM271100 03004KT 3SM -RA OVC008
     FM271700 02005KT P6SM OVC010
     FM272100 35004KT P6SM BKN040=

USA.gov is the U.S. government's official web portal to all federal, state and local government web resources and services.